Time;durP1;ratioP1;P1;durP2;ratioP2;P2;SDS_P1;SDS_P2;PMS_P1;PMS_P2;Temp;Humidity;BMP_temperature;BMP_pressure;BME280_temperature;BME280_humidity;BME280_pressure;Samples;Min_cycle;Max_cycle;Signal;HPM_P1;HPM_P2
2023/07/04 00:01:18;;;;;;;3.70;1.58;;;15.30;85.70;;;;;;5076466;28;20107;-67
2023/07/04 00:03:45;;;;;;;5.47;1.92;;;15.40;85.70;;;;;;5081310;28;20023;-67
2023/07/04 00:06:14;;;;;;;4.93;1.70;;;15.30;85.80;;;;;;5081853;28;20025;-68
2023/07/04 00:08:40;;;;;;;4.32;1.80;;;15.40;86.00;;;;;;5077958;28;20025;-67
2023/07/04 00:11:07;;;;;;;3.42;1.75;;;15.30;86.20;;;;;;5076357;28;20031;-67
2023/07/04 00:13:34;;;;;;;3.38;1.70;;;15.40;86.40;;;;;;5077197;28;20449;-67
2023/07/04 00:16:01;;;;;;;3.42;1.90;;;15.40;86.20;;;;;;5089691;28;20029;-67
2023/07/04 00:18:28;;;;;;;4.43;1.73;;;15.40;86.30;;;;;;5084494;28;20020;-67
2023/07/04 00:20:56;;;;;;;4.80;1.98;;;15.50;86.70;;;;;;5084159;28;20031;-67
2023/07/04 00:23:29;;;;;;;6.47;1.95;;;15.40;86.50;;;;;;5086873;28;20024;-67
2023/07/04 00:25:55;;;;;;;4.35;1.88;;;15.40;86.90;;;;;;5082081;28;20027;-67
2023/07/04 00:28:22;;;;;;;2.58;1.58;;;15.40;87.30;;;;;;5089522;28;20051;-67
2023/07/04 00:30:53;;;;;;;3.33;1.52;;;15.40;87.40;;;;;;5087292;28;20035;-67
2023/07/04 00:33:20;;;;;;;3.80;1.60;;;15.40;87.20;;;;;;5083098;28;21459;-67
2023/07/04 00:35:46;;;;;;;5.53;1.92;;;15.40;87.10;;;;;;5082262;28;20431;-67
2023/07/04 00:38:16;;;;;;;3.53;1.80;;;15.40;87.10;;;;;;5088680;28;20026;-67
2023/07/04 00:40:43;;;;;;;5.63;2.10;;;15.40;87.00;;;;;;5082383;28;20078;-67
2023/07/04 00:43:12;;;;;;;3.97;1.80;;;15.40;87.10;;;;;;5079505;28;20024;-67
2023/07/04 00:45:42;;;;;;;5.30;2.15;;;15.30;87.20;;;;;;5077042;28;20020;-67
2023/07/04 00:48:14;;;;;;;3.72;1.67;;;15.40;87.20;;;;;;5075997;28;20060;-67
2023/07/04 00:50:45;;;;;;;;;;;15.40;87.10;;;;;;5078702;28;20640;-68
2023/07/04 00:53:13;;;;;;;4.05;1.55;;;15.30;86.90;;;;;;5082516;28;19912;-68
2023/07/04 00:55:43;;;;;;;3.65;1.50;;;15.30;87.10;;;;;;5081535;28;20521;-67
2023/07/04 00:58:09;;;;;;;3.70;1.65;;;15.20;87.10;;;;;;5082972;28;20474;-67
2023/07/04 01:00:37;;;;;;;4.22;1.58;;;15.20;87.30;;;;;;5079712;28;20081;-67
2023/07/04 01:03:06;;;;;;;3.58;1.40;;;15.20;87.30;;;;;;5089302;28;20486;-67
2023/07/04 01:05:54;;;;;;;4.40;1.95;;;15.20;87.20;;;;;;5085853;28;20107;-67
2023/07/04 01:08:42;;;;;;;4.07;1.52;;;15.20;87.20;;;;;;5083154;28;20486;-67
2023/07/04 01:11:21;;;;;;;4.40;1.52;;;15.20;87.30;;;;;;5083580;28;20073;-67
2023/07/04 01:13:47;;;;;;;4.88;1.88;;;15.20;87.40;;;;;;5086982;28;20503;-67
2023/07/04 01:16:16;;;;;;;4.10;1.90;;;15.10;87.60;;;;;;5085108;28;20115;-67
2023/07/04 01:18:46;;;;;;;4.72;1.88;;;15.10;87.70;;;;;;5076204;28;20024;-67
2023/07/04 01:21:14;;;;;;;7.75;2.10;;;15.10;87.70;;;;;;5079881;28;20017;-67
2023/07/04 01:24:23;;;;;;;3.40;1.42;;;15.10;88.00;;;;;;5085209;28;20027;-67
2023/07/04 01:26:49;;;;;;;4.25;1.90;;;15.10;88.20;;;;;;5016701;28;20026;-67
2023/07/04 01:29:17;;;;;;;5.68;1.92;;;15.00;88.40;;;;;;5011151;28;20083;-67
2023/07/04 01:31:44;;;;;;;4.28;1.80;;;15.00;88.70;;;;;;5049705;28;20082;-67
2023/07/04 01:34:10;;;;;;;4.43;1.60;;;15.00;88.80;;;;;;5081417;28;20378;-67
2023/07/04 01:36:38;;;;;;;5.07;1.88;;;15.00;88.90;;;;;;5081091;28;20017;-67
2023/07/04 01:39:05;;;;;;;5.72;2.15;;;15.00;89.10;;;;;;5080114;28;20077;-67
2023/07/04 01:41:32;;;;;;;3.78;1.65;;;15.10;89.20;;;;;;5079021;28;20655;-66
2023/07/04 01:44:04;;;;;;;4.05;1.60;;;15.10;89.10;;;;;;5077505;28;20479;-67
2023/07/04 01:46:29;;;;;;;;;;;15.20;89.00;;;;;;5081367;28;20020;-67
2023/07/04 01:48:55;;;;;;;6.60;2.50;;;15.20;88.60;;;;;;5079591;28;19961;-67
2023/07/04 01:51:36;;;;;;;6.75;2.50;;;15.10;89.00;;;;;;5083205;28;20505;-67
2023/07/04 01:54:04;;;;;;;5.40;2.03;;;15.10;89.30;;;;;;5082446;28;20399;-67
2023/07/04 01:56:31;;;;;;;6.10;2.72;;;15.10;89.40;;;;;;5084997;28;20028;-67
2023/07/04 01:58:57;;;;;;;5.22;2.28;;;15.10;89.40;;;;;;5082272;28;20115;-67
2023/07/04 02:01:23;;;;;;;7.10;2.30;;;15.20;89.40;;;;;;5078026;28;20422;-67
2023/07/04 02:03:48;;;;;;;3.97;1.73;;;15.20;89.30;;;;;;5080544;28;20476;-67
2023/07/04 02:06:14;;;;;;;5.50;2.08;;;15.20;89.10;;;;;;5085588;28;20054;-67
2023/07/04 02:08:40;;;;;;;4.50;1.80;;;15.30;88.90;;;;;;5078920;28;20024;-67
2023/07/04 02:11:06;;;;;;;7.60;2.00;;;15.30;89.30;;;;;;5084595;28;20359;-67
2023/07/04 02:13:32;;;;;;;4.65;2.08;;;15.40;88.60;;;;;;5084258;28;20097;-67
2023/07/04 02:15:57;;;;;;;7.25;2.40;;;15.40;88.60;;;;;;5073757;28;20522;-67
2023/07/04 02:18:25;;;;;;;5.30;2.25;;;15.40;88.60;;;;;;5085725;28;20103;-67
2023/07/04 02:20:51;;;;;;;9.88;2.70;;;15.50;88.60;;;;;;5081820;28;20402;-67
2023/07/04 02:23:16;;;;;;;6.10;2.20;;;15.50;88.40;;;;;;5078685;28;20096;-67
2023/07/04 02:25:43;;;;;;;5.32;2.00;;;15.50;88.40;;;;;;5074458;28;20537;-67
2023/07/04 02:28:09;;;;;;;6.38;2.95;;;15.50;88.50;;;;;;5077794;28;20414;-67
2023/07/04 02:30:35;;;;;;;6.38;2.47;;;15.50;88.80;;;;;;5085118;28;20035;-67
2023/07/04 02:33:01;;;;;;;7.68;2.60;;;15.50;89.10;;;;;;5081220;28;20111;-67
2023/07/04 02:35:29;;;;;;;6.03;2.60;;;15.40;89.20;;;;;;5080751;28;20024;-67
2023/07/04 02:37:55;;;;;;;7.57;3.05;;;15.40;89.40;;;;;;5084225;28;20111;-67
2023/07/04 02:40:21;;;;;;;9.80;3.15;;;15.40;89.80;;;;;;5082788;28;20116;-67
2023/07/04 02:42:47;;;;;;;6.30;2.80;;;15.30;90.10;;;;;;5075609;28;20020;-67
2023/07/04 02:45:12;;;;;;;10.13;3.33;;;15.20;90.40;;;;;;5072264;28;20032;-67
2023/07/04 02:47:38;;;;;;;9.32;2.80;;;15.10;90.50;;;;;;5082872;28;20020;-67
2023/07/04 02:50:04;;;;;;;9.30;3.17;;;15.10;90.70;;;;;;5075441;28;20402;-66
2023/07/04 02:52:30;;;;;;;7.90;2.50;;;15.00;90.80;;;;;;5075999;28;20047;-66
2023/07/04 02:54:56;;;;;;;8.73;2.42;;;15.00;90.80;;;;;;5082867;28;20541;-68
2023/07/04 02:57:22;;;;;;;5.93;2.10;;;15.00;90.80;;;;;;5080813;28;20105;-68
2023/07/04 02:59:48;;;;;;;7.57;2.40;;;15.00;90.70;;;;;;5083178;28;20097;-68
2023/07/04 03:02:13;;;;;;;6.57;2.42;;;15.00;90.70;;;;;;5072750;28;20111;-67
2023/07/04 03:04:39;;;;;;;5.93;2.95;;;15.00;90.70;;;;;;5086536;28;20024;-67
2023/07/04 03:07:05;;;;;;;4.32;2.03;;;15.00;90.70;;;;;;5081910;28;20611;-67
2023/07/04 03:09:31;;;;;;;5.32;2.13;;;15.00;90.60;;;;;;5076863;28;20059;-67
2023/07/04 03:11:56;;;;;;;5.00;2.30;;;15.00;90.50;;;;;;5071833;28;20085;-67
2023/07/04 03:14:22;;;;;;;8.15;3.45;;;15.00;90.50;;;;;;5078625;28;20194;-67
2023/07/04 03:16:48;;;;;;;8.38;2.85;;;15.00;90.50;;;;;;5080617;28;20077;-68
2023/07/04 03:19:13;;;;;;;5.63;2.35;;;14.90;90.60;;;;;;5070763;28;20495;-67
2023/07/04 03:21:39;;;;;;;7.07;2.60;;;14.90;90.60;;;;;;5084272;28;20029;-67
2023/07/04 03:24:05;;;;;;;6.88;2.38;;;14.90;90.60;;;;;;5070904;28;20032;-67
2023/07/04 03:26:34;;;;;;;7.82;2.45;;;14.90;90.60;;;;;;5079606;28;20391;-67
2023/07/04 03:29:00;;;;;;;5.97;2.30;;;14.90;90.60;;;;;;5080002;28;20043;-66
2023/07/04 03:31:26;;;;;;;6.88;2.47;;;14.80;90.50;;;;;;5078294;28;20073;-66
2023/07/04 03:33:52;;;;;;;5.22;2.20;;;14.80;90.50;;;;;;5079997;28;20032;-66
2023/07/04 03:36:18;;;;;;;7.20;2.45;;;14.80;90.50;;;;;;5079231;28;20020;-66
2023/07/04 03:38:43;;;;;;;4.63;2.10;;;14.80;90.50;;;;;;5073296;28;20024;-66
2023/07/04 03:41:09;;;;;;;5.32;2.33;;;14.80;90.40;;;;;;5082908;28;20123;-66
2023/07/04 03:43:35;;;;;;;5.68;2.08;;;14.80;90.40;;;;;;5087061;28;20025;-66
2023/07/04 03:46:00;;;;;;;4.20;2.05;;;14.80;90.40;;;;;;5084590;28;20025;-67
2023/07/04 03:48:26;;;;;;;6.68;2.03;;;14.80;90.30;;;;;;5078476;28;20414;-67
2023/07/04 03:50:52;;;;;;;5.22;2.28;;;14.80;90.40;;;;;;5081842;28;20020;-66
2023/07/04 03:53:17;;;;;;;7.00;2.30;;;14.80;90.30;;;;;;5088621;28;20035;-66
2023/07/04 03:55:43;;;;;;;5.20;1.90;;;14.80;90.30;;;;;;5091013;28;20051;-67
2023/07/04 03:58:08;;;;;;;5.07;2.13;;;14.80;90.30;;;;;;5082649;28;20032;-67
2023/07/04 04:00:34;;;;;;;5.72;2.40;;;14.80;90.20;;;;;;5089258;28;20073;-67
2023/07/04 04:03:00;;;;;;;7.15;2.20;;;14.80;90.10;;;;;;5083603;28;20071;-67
2023/07/04 04:05:27;;;;;;;5.32;2.20;;;14.90;90.10;;;;;;5084338;28;20028;-66
2023/07/04 04:07:52;;;;;;;4.65;1.77;;;14.90;90.10;;;;;;5076228;28;20039;-66
2023/07/04 04:10:18;;;;;;;5.15;2.17;;;14.80;90.00;;;;;;5085765;28;20111;-67
2023/07/04 04:12:44;;;;;;;6.53;2.10;;;14.80;90.10;;;;;;5075978;28;20020;-67
2023/07/04 04:15:10;;;;;;;7.00;2.20;;;14.90;90.10;;;;;;5081657;28;20036;-66
2023/07/04 04:17:36;;;;;;;5.25;2.30;;;14.90;90.00;;;;;;5079024;28;20018;-66
2023/07/04 04:20:06;;;;;;;6.78;2.20;;;14.90;90.00;;;;;;5083332;28;20038;-67
2023/07/04 04:22:34;;;;;;;5.20;2.33;;;14.90;90.00;;;;;;5073527;28;20024;-66
2023/07/04 04:25:00;;;;;;;6.68;2.40;;;14.80;90.00;;;;;;5080508;28;20031;-66
2023/07/04 04:27:30;;;;;;;6.10;2.10;;;14.90;90.00;;;;;;5082661;28;20378;-66
2023/07/04 04:29:56;;;;;;;5.45;2.05;;;14.90;90.00;;;;;;5084622;28;20016;-67
2023/07/04 04:32:22;;;;;;;5.63;2.35;;;15.00;90.10;;;;;;5074492;28;20016;-67
2023/07/04 04:34:48;;;;;;;4.68;1.90;;;15.00;90.10;;;;;;5086784;28;20057;-67
2023/07/04 04:37:14;;;;;;;4.30;1.80;;;15.00;90.00;;;;;;5085393;28;20024;-66
2023/07/04 04:39:39;;;;;;;4.07;1.85;;;15.00;90.00;;;;;;5082596;28;20032;-66
2023/07/04 04:42:06;;;;;;;2.60;1.88;;;15.10;90.00;;;;;;5078593;28;20036;-66
2023/07/04 04:44:32;;;;;;;4.32;2.00;;;15.10;89.90;;;;;;5073122;28;20161;-66
2023/07/04 04:46:58;;;;;;;4.78;2.10;;;15.20;89.80;;;;;;5089608;28;20032;-66
2023/07/04 04:49:23;;;;;;;5.63;2.60;;;15.30;89.70;;;;;;5086590;28;20520;-66
2023/07/04 04:51:51;;;;;;;5.47;2.95;;;15.20;90.00;;;;;;5087316;28;20027;-66
2023/07/04 04:54:18;;;;;;;7.63;2.63;;;15.20;90.10;;;;;;5078337;28;20024;-66
2023/07/04 04:56:46;;;;;;;6.93;2.72;;;15.30;90.10;;;;;;5078363;28;20066;-66
2023/07/04 04:59:12;;;;;;;6.57;2.55;;;15.40;90.10;;;;;;5074321;28;20028;-66
2023/07/04 05:01:38;;;;;;;7.65;3.13;;;15.50;90.00;;;;;;5085373;28;20467;-66
2023/07/04 05:04:04;;;;;;;10.48;3.65;;;15.60;90.00;;;;;;5091085;28;20028;-66
2023/07/04 05:06:30;;;;;;;8.02;3.22;;;15.50;90.20;;;;;;5082259;28;20020;-66
2023/07/04 05:08:56;;;;;;;12.95;4.28;;;15.50;90.30;;;;;;5085398;28;20028;-66
2023/07/04 05:11:22;;;;;;;9.35;3.65;;;15.50;90.50;;;;;;5084002;28;20073;-66
2023/07/04 05:13:49;;;;;;;7.07;3.70;;;15.50;90.60;;;;;;5073936;28;20094;-66
2023/07/04 05:16:17;;;;;;;9.77;3.90;;;15.40;90.70;;;;;;5079928;28;20024;-66
2023/07/04 05:18:45;;;;;;;10.27;3.97;;;15.40;90.80;;;;;;5073024;28;20021;-66
2023/07/04 05:21:14;;;;;;;10.35;3.95;;;15.40;90.90;;;;;;5078439;28;20031;-67
2023/07/04 05:23:42;;;;;;;12.80;4.10;;;15.40;91.10;;;;;;5087247;28;20016;-67
2023/07/04 05:26:15;;;;;;;10.63;3.65;;;15.50;91.10;;;;;;5083526;28;20750;-66
2023/07/04 05:28:41;;;;;;;10.18;3.80;;;15.60;91.10;;;;;;5089765;28;20032;-66
2023/07/04 05:31:15;;;;;;;9.18;3.83;;;15.70;90.90;;;;;;5086604;28;20024;-66
2023/07/04 05:33:41;;;;;;;15.13;4.63;;;15.70;90.90;;;;;;5079036;28;20100;-66
2023/07/04 05:36:16;;;;;;;10.82;4.30;;;15.80;90.90;;;;;;5080491;28;20075;-66
2023/07/04 05:38:42;;;;;;;12.35;4.57;;;15.80;90.90;;;;;;5080663;28;20028;-66
2023/07/04 05:41:13;;;;;;;11.90;4.38;;;15.80;91.00;;;;;;5087785;28;20016;-66
2023/07/04 05:43:40;;;;;;;12.43;3.93;;;15.80;91.10;;;;;;5088171;28;20024;-66
2023/07/04 05:46:07;;;;;;;10.68;3.75;;;15.80;91.20;;;;;;5085391;28;20277;-67
2023/07/04 05:48:33;;;;;;;14.07;5.55;;;15.80;91.20;;;;;;5072826;28;20025;-67
2023/07/04 05:51:01;;;;;;;16.33;5.25;;;15.90;91.90;;;;;;5083142;28;20085;-67
2023/07/04 05:53:29;;;;;;;17.10;6.20;;;15.90;92.20;;;;;;5072808;28;20383;-67
2023/07/04 05:56:15;;;;;;;9.98;4.35;;;15.90;92.20;;;;;;5082195;28;20027;-67
2023/07/04 05:58:42;;;;;;;14.95;5.60;;;16.10;92.30;;;;;;5084261;28;20024;-67
2023/07/04 06:01:16;;;;;;;16.63;6.43;;;16.20;92.00;;;;;;5080206;28;20109;-67
2023/07/04 06:03:43;;;;;;;13.90;4.57;;;16.20;91.90;;;;;;5081887;28;20060;-67
2023/07/04 06:06:26;;;;;;;11.13;4.40;;;16.30;91.90;;;;;;5079804;28;20044;-67
2023/07/04 06:08:54;;;;;;;15.73;5.43;;;16.70;91.90;;;;;;5082260;28;20028;-68
2023/07/04 06:11:21;;;;;;;11.80;4.60;;;17.00;91.40;;;;;;5085897;28;20100;-68
2023/07/04 06:13:47;;;;;;;12.30;5.10;;;17.20;91.10;;;;;;5086623;28;20047;-67
2023/07/04 06:16:13;;;;;;;11.98;4.75;;;17.30;91.00;;;;;;5087479;28;20400;-67
2023/07/04 06:18:39;;;;;;;11.57;4.47;;;17.50;90.50;;;;;;5076776;28;20025;-67
2023/07/04 06:21:12;;;;;;;14.77;5.00;;;17.70;90.10;;;;;;5075755;28;20031;-67
2023/07/04 06:23:39;;;;;;;14.88;5.20;;;17.80;89.80;;;;;;5076875;28;20020;-67
2023/07/04 06:26:06;;;;;;;14.38;5.00;;;17.90;89.10;;;;;;5076945;28;20491;-67
2023/07/04 06:28:33;;;;;;;16.90;5.57;;;17.70;88.50;;;;;;5078925;28;20051;-67
2023/07/04 06:31:07;;;;;;;12.75;4.60;;;17.60;88.60;;;;;;5093153;27;20393;-67
2023/07/04 06:33:33;;;;;;;15.45;5.15;;;17.60;88.70;;;;;;5074100;28;20031;-67
2023/07/04 06:36:00;;;;;;;15.40;5.40;;;17.60;88.60;;;;;;5069581;28;20028;-67
2023/07/04 06:38:26;;;;;;;13.30;5.22;;;17.70;88.50;;;;;;5067305;28;20024;-67
2023/07/04 06:41:05;;;;;;;15.68;5.63;;;17.80;88.20;;;;;;5066854;28;20495;-67
2023/07/04 06:43:32;;;;;;;14.68;4.78;;;17.80;87.70;;;;;;5067764;28;20383;-67
2023/07/04 06:45:58;;;;;;;11.23;4.15;;;17.80;87.70;;;;;;5063845;28;20111;-67
2023/07/04 06:48:25;;;;;;;15.93;5.18;;;17.70;87.80;;;;;;5064371;28;20523;-67
2023/07/04 06:51:02;;;;;;;13.98;4.95;;;17.60;88.00;;;;;;5046645;28;20112;-67
2023/07/04 06:53:30;;;;;;;10.57;4.00;;;17.60;88.40;;;;;;5076859;28;20109;-67
2023/07/04 06:56:13;;;;;;;17.55;6.18;;;18.00;88.30;;;;;;5069519;28;20033;-67
2023/07/04 06:58:41;;;;;;;15.55;5.60;;;18.20;87.10;;;;;;5062235;28;20551;-67
2023/07/04 07:01:08;;;;;;;15.25;5.10;;;18.20;86.50;;;;;;5065465;28;20031;-67
2023/07/04 07:03:34;;;;;;;12.75;4.68;;;18.30;86.40;;;;;;5070352;28;20048;-67
2023/07/04 07:06:02;;;;;;;13.57;4.53;;;18.50;86.20;;;;;;5061734;28;20102;-67
2023/07/04 07:08:28;;;;;;;10.60;3.83;;;18.60;85.60;;;;;;5067695;28;20016;-67
2023/07/04 07:11:03;;;;;;;12.52;4.25;;;18.70;85.10;;;;;;5065923;28;20077;-67
2023/07/04 07:13:29;;;;;;;9.00;3.50;;;18.70;84.50;;;;;;5069626;28;20146;-67
2023/07/04 07:16:30;;;;;;;14.10;4.63;;;18.70;84.60;;;;;;5065295;28;20131;-67
2023/07/04 07:18:56;;;;;;;11.73;4.03;;;18.60;83.80;;;;;;4988098;28;20098;-67
2023/07/04 07:21:25;;;;;;;11.18;3.97;;;18.60;83.90;;;;;;5044780;28;20033;-67
2023/07/04 07:23:52;;;;;;;12.57;4.35;;;18.50;84.10;;;;;;5065315;28;20498;-67
2023/07/04 07:26:21;;;;;;;15.93;4.70;;;18.50;83.90;;;;;;5072217;28;20052;-68
2023/07/04 07:28:47;;;;;;;15.38;4.53;;;18.40;84.00;;;;;;5066975;28;20028;-68
2023/07/04 07:31:15;;;;;;;13.38;4.63;;;18.40;83.90;;;;;;5064148;28;20086;-68
2023/07/04 07:33:42;;;;;;;14.45;4.63;;;18.30;84.00;;;;;;5061817;28;20021;-68
2023/07/04 07:36:25;;;;;;;12.30;4.07;;;18.20;84.00;;;;;;5068600;28;20496;-67
2023/07/04 07:38:52;;;;;;;13.60;4.30;;;18.20;84.20;;;;;;5066176;28;20029;-68
2023/07/04 07:41:19;;;;;;;10.68;3.90;;;18.00;84.30;;;;;;5058301;28;20047;-67
2023/07/04 07:43:46;;;;;;;18.55;4.90;;;18.00;84.20;;;;;;5056686;28;20017;-67
2023/07/04 07:46:14;;;;;;;10.52;3.80;;;17.90;84.00;;;;;;5053520;28;20025;-67
2023/07/04 07:48:41;;;;;;;10.38;3.95;;;17.80;84.20;;;;;;5057014;28;20029;-67
2023/07/04 07:51:09;;;;;;;15.70;4.07;;;17.90;84.40;;;;;;5051475;28;20040;-67
2023/07/04 07:53:36;;;;;;;14.07;4.53;;;18.00;84.10;;;;;;5052143;28;20028;-67
2023/07/04 07:56:03;;;;;;;10.98;3.83;;;18.20;83.70;;;;;;5055752;28;20044;-67
2023/07/04 07:58:29;;;;;;;11.02;3.45;;;18.40;83.10;;;;;;5049988;28;20040;-67
2023/07/04 08:00:55;;;;;;;9.93;3.65;;;18.60;82.30;;;;;;5050702;28;20029;-67
2023/07/04 08:03:20;;;;;;;9.93;3.50;;;18.70;81.60;;;;;;5053939;28;20526;-68
2023/07/04 08:05:46;;;;;;;9.15;3.00;;;18.60;80.80;;;;;;5048277;28;20110;-67
2023/07/04 08:08:12;;;;;;;9.93;3.13;;;18.60;80.70;;;;;;5052258;28;20028;-67
2023/07/04 08:10:41;;;;;;;13.25;3.53;;;18.50;80.40;;;;;;5052845;28;20033;-67
2023/07/04 08:13:08;;;;;;;9.02;2.78;;;18.50;80.00;;;;;;5048113;28;20029;-67
2023/07/04 08:15:34;;;;;;;9.10;3.00;;;18.40;80.00;;;;;;5052234;28;20035;-67
2023/07/04 08:18:08;;;;;;;12.95;3.10;;;18.40;80.10;;;;;;5049642;28;20672;-67
2023/07/04 08:20:34;;;;;;;7.97;2.97;;;18.30;79.30;;;;;;5049068;28;20025;-67
2023/07/04 08:23:00;;;;;;;9.35;2.65;;;18.10;79.30;;;;;;5050298;28;20631;-67
2023/07/04 08:25:26;;;;;;;11.38;3.30;;;18.10;79.40;;;;;;5054437;28;20031;-67
2023/07/04 08:27:52;;;;;;;9.45;2.55;;;18.20;79.30;;;;;;5052900;28;20034;-67
2023/07/04 08:30:19;;;;;;;12.05;2.90;;;18.20;79.20;;;;;;5048980;28;20040;-67
2023/07/04 08:32:44;;;;;;;7.88;2.75;;;18.30;78.80;;;;;;5051566;28;20666;-67
2023/07/04 08:35:10;;;;;;;9.55;2.63;;;18.30;78.30;;;;;;5050194;28;20049;-67
2023/07/04 08:37:36;;;;;;;10.70;2.83;;;18.30;77.40;;;;;;5051823;28;20036;-67
2023/07/04 08:40:03;;;;;;;8.93;2.50;;;18.20;76.40;;;;;;5049896;28;20032;-67
2023/07/04 08:42:32;;;;;;;6.78;2.40;;;18.20;76.30;;;;;;5032300;28;20056;-67
2023/07/04 08:44:59;;;;;;;6.15;2.25;;;18.30;76.50;;;;;;5047974;28;20033;-67
2023/07/04 08:47:25;;;;;;;6.72;2.35;;;18.40;76.30;;;;;;5049973;28;20021;-67
2023/07/04 08:50:15;;;;;;;7.25;2.10;;;18.40;75.70;;;;;;5050781;28;20147;-67
2023/07/04 08:52:54;;;;;;;10.15;3.10;;;18.50;75.50;;;;;;5048941;28;20547;-67
2023/07/04 08:55:20;;;;;;;8.40;2.70;;;18.60;75.10;;;;;;5050793;28;20021;-67
2023/07/04 08:57:59;;;;;;;9.13;3.40;;;18.70;74.10;;;;;;5047661;28;20561;-67
2023/07/04 09:00:36;;;;;;;8.10;2.30;;;18.70;72.80;;;;;;5051363;28;20036;-67
2023/07/04 09:03:39;;;;;;;6.93;2.30;;;18.80;72.70;;;;;;5050474;28;20021;-67
2023/07/04 09:06:23;;;;;;;6.90;2.63;;;19.00;72.20;;;;;;5049093;28;20043;-67
2023/07/04 09:09:13;;;;;;;7.00;2.50;;;19.00;71.90;;;;;;5050967;28;20444;-67
2023/07/04 09:11:38;;;;;;;7.50;2.30;;;19.10;72.00;;;;;;5048915;28;20052;-67
2023/07/04 09:14:28;;;;;;;10.27;3.00;;;19.20;72.40;;;;;;5051645;28;20056;-67
2023/07/04 09:16:56;;;;;;;7.13;2.40;;;19.30;71.00;;;;;;5049251;28;20039;-67
2023/07/04 09:19:22;;;;;;;8.20;2.38;;;19.40;70.20;;;;;;5050512;28;20120;-67
2023/07/04 09:21:48;;;;;;;9.75;2.63;;;19.60;69.80;;;;;;5045644;28;20451;-68
2023/07/04 09:24:14;;;;;;;8.25;2.33;;;19.70;69.50;;;;;;5052060;28;20102;-67
2023/07/04 09:26:41;;;;;;;6.10;2.40;;;19.80;68.60;;;;;;5047294;28;20035;-67
2023/07/04 09:29:07;;;;;;;8.10;2.30;;;19.80;68.10;;;;;;5028703;28;20028;-67
2023/07/04 09:31:39;;;;;;;8.88;2.03;;;20.00;67.70;;;;;;5051746;28;20031;-67
2023/07/04 09:34:17;;;;;;;6.43;2.33;;;20.20;66.60;;;;;;5047741;28;20533;-67
2023/07/04 09:36:44;;;;;;;7.70;2.22;;;20.30;66.20;;;;;;5051385;28;20032;-67
2023/07/04 09:39:09;;;;;;;7.18;2.50;;;20.40;65.50;;;;;;5053054;28;20016;-67
2023/07/04 09:41:39;;;;;;;7.68;2.20;;;20.40;64.60;;;;;;5048212;28;20353;-67
2023/07/04 09:44:19;;;;;;;5.38;2.22;;;20.40;63.40;;;;;;5053170;28;20029;-67
2023/07/04 09:46:53;;;;;;;6.68;2.00;;;20.50;62.50;;;;;;5049587;28;20569;-67
2023/07/04 09:49:27;;;;;;;7.07;2.20;;;20.50;62.80;;;;;;5049616;28;20058;-67
2023/07/04 09:51:59;;;;;;;8.90;2.40;;;20.50;62.40;;;;;;5047312;28;20025;-67
2023/07/04 09:54:24;;;;;;;6.85;2.22;;;20.60;62.60;;;;;;5052045;28;20028;-67
2023/07/04 09:56:50;;;;;;;6.35;1.92;;;20.80;62.10;;;;;;5052735;28;20023;-67
2023/07/04 09:59:24;;;;;;;5.82;2.10;;;21.00;61.70;;;;;;5050742;28;20039;-67
2023/07/04 10:01:53;;;;;;;7.20;2.40;;;21.00;60.60;;;;;;5050151;28;20086;-67
2023/07/04 10:04:25;;;;;;;7.82;2.08;;;21.10;59.80;;;;;;5050129;28;20043;-67
2023/07/04 10:06:53;;;;;;;6.82;2.15;;;21.10;59.70;;;;;;5051165;28;20039;-67
2023/07/04 10:09:20;;;;;;;7.63;1.98;;;21.20;59.90;;;;;;5051434;28;20024;-67
2023/07/04 10:11:51;;;;;;;5.55;1.90;;;21.30;59.80;;;;;;5050757;28;20053;-67
2023/07/04 10:14:31;;;;;;;6.50;2.10;;;21.40;59.90;;;;;;5050871;28;20104;-67
2023/07/04 10:17:09;;;;;;;5.47;2.00;;;21.40;59.20;;;;;;5048888;28;20057;-67
2023/07/04 10:19:41;;;;;;;6.32;1.95;;;21.50;59.20;;;;;;5050626;28;20013;-67
2023/07/04 10:22:07;;;;;;;6.18;2.00;;;21.60;58.10;;;;;;5050268;28;20175;-67
2023/07/04 10:24:34;;;;;;;6.38;1.92;;;21.70;58.00;;;;;;5052222;28;20554;-67
2023/07/04 10:27:04;;;;;;;7.22;2.50;;;21.90;58.10;;;;;;5050130;28;20032;-67
2023/07/04 10:29:42;;;;;;;7.32;2.28;;;22.00;56.90;;;;;;5031083;28;20041;-67
2023/07/04 10:32:14;;;;;;;5.40;1.70;;;22.00;55.70;;;;;;5051006;28;20096;-67
2023/07/04 10:34:43;;;;;;;6.82;2.17;;;22.10;56.00;;;;;;5045386;28;20013;-68
2023/07/04 10:37:19;;;;;;;6.82;1.67;;;22.20;55.80;;;;;;5048665;28;20446;-67
2023/07/04 10:39:45;;;;;;;6.97;1.95;;;22.20;55.40;;;;;;5046895;28;20104;-67
2023/07/04 10:42:26;;;;;;;7.55;2.30;;;22.20;55.00;;;;;;5048492;28;20568;-67
2023/07/04 10:44:55;;;;;;;7.07;1.90;;;22.20;55.00;;;;;;5050488;28;20508;-67
2023/07/04 10:47:29;;;;;;;5.82;1.92;;;22.30;55.30;;;;;;5053804;28;20032;-67
2023/07/04 10:50:17;;;;;;;6.07;2.03;;;22.30;55.30;;;;;;5050717;28;20147;-68
2023/07/04 10:52:47;;;;;;;5.85;1.67;;;22.40;55.50;;;;;;5050711;28;20091;-67
2023/07/04 10:55:17;;;;;;;6.95;1.70;;;22.50;55.60;;;;;;5047432;28;20431;-67
2023/07/04 10:57:56;;;;;;;7.65;2.10;;;22.70;55.70;;;;;;5048235;28;20029;-67
2023/07/04 11:00:30;;;;;;;6.72;1.70;;;22.90;54.40;;;;;;5046809;28;20021;-67
2023/07/04 11:03:00;;;;;;;8.43;2.10;;;22.90;53.50;;;;;;5047014;28;20463;-67
2023/07/04 11:05:37;;;;;;;3.45;1.65;;;22.90;51.40;;;;;;5044216;28;20025;-67
2023/07/04 11:08:13;;;;;;;5.70;1.98;;;22.90;51.70;;;;;;5047988;28;20033;-67
2023/07/04 11:10:44;;;;;;;5.57;2.38;;;22.90;51.40;;;;;;5050854;28;20017;-68
2023/07/04 11:13:19;;;;;;;8.90;1.90;;;22.80;51.90;;;;;;5049898;28;20025;-67
2023/07/04 11:15:55;;;;;;;8.63;2.45;;;23.00;52.00;;;;;;5051500;28;20268;-67
2023/07/04 11:18:26;;;;;;;9.48;2.67;;;23.00;51.70;;;;;;5050300;28;20029;-67
2023/07/04 11:21:15;;;;;;;5.18;1.83;;;22.80;52.00;;;;;;5055550;28;20027;-67
2023/07/04 11:23:48;;;;;;;4.97;1.90;;;22.70;52.60;;;;;;5052501;28;20025;-68
2023/07/04 11:26:15;;;;;;;5.63;1.92;;;22.70;53.20;;;;;;5054461;28;20021;-68
2023/07/04 11:28:45;;;;;;;4.85;1.70;;;22.80;53.50;;;;;;5054957;28;20482;-67
2023/07/04 11:31:24;;;;;;;4.47;1.63;;;22.90;53.30;;;;;;5054609;28;20057;-67
2023/07/04 11:33:53;;;;;;;4.78;1.80;;;22.90;52.70;;;;;;5055527;28;20028;-67
2023/07/04 11:36:34;;;;;;;4.20;1.58;;;22.90;51.20;;;;;;5052550;28;20033;-67
2023/07/04 11:39:03;;;;;;;;;;;22.90;50.80;;;;;;5053503;28;21034;-68
2023/07/04 11:41:34;;;;;;;5.28;2.05;;;23.00;50.70;;;;;;5049792;28;19916;-67
2023/07/04 11:44:12;;;;;;;6.65;1.77;;;23.00;50.10;;;;;;5049598;28;20098;-68
2023/07/04 11:46:40;;;;;;;5.10;1.85;;;23.00;49.80;;;;;;5034266;28;20514;-68
2023/07/04 11:49:18;;;;;;;6.57;2.30;;;22.90;50.20;;;;;;5049246;28;20032;-68
2023/07/04 11:51:44;;;;;;;5.40;1.85;;;23.00;50.30;;;;;;5051051;28;20085;-68
2023/07/04 11:54:11;;;;;;;4.45;1.92;;;23.00;50.30;;;;;;5050445;28;20096;-67
2023/07/04 11:56:41;;;;;;;3.72;1.73;;;23.20;50.30;;;;;;5053172;28;20021;-67
2023/07/04 11:59:18;;;;;;;4.55;1.63;;;23.20;50.10;;;;;;5049865;28;20027;-67
2023/07/04 12:02:05;;;;;;;5.32;2.00;;;23.20;50.30;;;;;;5049831;28;20035;-67
2023/07/04 12:04:37;;;;;;;4.18;1.48;;;23.00;50.60;;;;;;5046723;28;20039;-67
2023/07/04 12:07:26;;;;;;;4.72;1.77;;;23.10;50.70;;;;;;5049783;28;20112;-67
2023/07/04 12:10:21;;;;;;;5.93;1.70;;;23.00;49.90;;;;;;5048958;28;20052;-67
2023/07/04 12:12:59;;;;;;;6.72;2.33;;;23.10;50.20;;;;;;5041986;28;20083;-67
2023/07/04 12:15:30;;;;;;;4.60;1.45;;;23.00;50.40;;;;;;5047186;28;20483;-67
2023/07/04 12:17:59;;;;;;;4.93;1.50;;;22.90;49.90;;;;;;5048806;28;20102;-67
2023/07/04 12:20:30;;;;;;;3.83;1.65;;;22.70;50.10;;;;;;5046911;28;20021;-67
2023/07/04 12:22:57;;;;;;;3.10;1.42;;;22.80;50.40;;;;;;5046438;28;20082;-67
2023/07/04 12:25:32;;;;;;;5.53;1.90;;;22.90;50.60;;;;;;5031110;28;20064;-67
2023/07/04 12:28:02;;;;;;;3.60;1.60;;;23.00;50.50;;;;;;5046336;28;20425;-67
2023/07/04 12:30:28;;;;;;;4.85;1.45;;;22.90;50.20;;;;;;5046907;28;20029;-67
2023/07/04 12:32:54;;;;;;;5.75;1.70;;;22.80;50.60;;;;;;5050405;28;20055;-67
2023/07/04 12:35:27;;;;;;;6.28;2.05;;;22.80;51.10;;;;;;5050847;28;20016;-67
2023/07/04 12:37:56;;;;;;;6.13;2.17;;;22.70;51.20;;;;;;5048612;28;20103;-67
2023/07/04 12:40:28;;;;;;;3.80;1.73;;;22.60;50.90;;;;;;5047958;28;20032;-68
2023/07/04 12:42:55;;;;;;;4.63;1.80;;;22.60;51.20;;;;;;5047071;28;20395;-68
2023/07/04 12:45:24;;;;;;;4.40;1.67;;;22.60;51.40;;;;;;5045496;28;20041;-67
2023/07/04 12:47:53;;;;;;;5.93;1.88;;;22.60;51.50;;;;;;5047699;28;20060;-68
2023/07/04 12:50:19;;;;;;;7.38;1.80;;;22.50;51.60;;;;;;5027951;28;20052;-68
2023/07/04 12:52:47;;;;;;;5.82;1.80;;;22.60;51.40;;;;;;5049434;28;20021;-68
2023/07/04 12:55:43;;;;;;;5.55;1.80;;;22.70;51.50;;;;;;5048170;28;20028;-68
2023/07/04 12:58:13;;;;;;;5.65;1.83;;;22.70;51.50;;;;;;5017035;28;20033;-68